Time;durP1;ratioP1;P1;durP2;ratioP2;P2;SDS_P1;SDS_P2;PMS_P1;PMS_P2;Temp;Humidity;BMP_temperature;BMP_pressure;BME280_temperature;BME280_humidity;BME280_pressure;Samples;Min_cycle;Max_cycle;Signal;HPM_P1;HPM_P2
2021/12/27 00:00:31;;;;;;;6.80;5.60;;;22.80;30.80;;;;;;5015341;28;20046;-59
2021/12/27 00:03:00;;;;;;;6.30;5.00;;;22.80;30.80;;;;;;5013575;28;20042;-58
2021/12/27 00:05:26;;;;;;;5.47;4.93;;;22.80;30.90;;;;;;5015187;28;20530;-59
2021/12/27 00:07:54;;;;;;;6.07;5.47;;;22.80;30.80;;;;;;5011473;28;20041;-58
2021/12/27 00:10:20;;;;;;;5.53;4.78;;;22.70;30.70;;;;;;5017213;28;20567;-58
2021/12/27 00:12:46;;;;;;;5.78;5.10;;;22.70;30.80;;;;;;5010791;28;21698;-59
2021/12/27 00:15:13;;;;;;;5.43;4.93;;;22.70;30.70;;;;;;5013414;28;20592;-59
2021/12/27 00:17:40;;;;;;;5.30;4.80;;;22.70;30.70;;;;;;5010940;28;20509;-57
2021/12/27 00:20:07;;;;;;;5.72;5.20;;;22.70;30.80;;;;;;5015338;28;20055;-58
2021/12/27 00:22:33;;;;;;;6.97;5.47;;;22.60;30.80;;;;;;5012888;28;20379;-58
2021/12/27 00:24:59;;;;;;;5.30;4.80;;;22.60;30.80;;;;;;5016112;28;20039;-59
2021/12/27 00:27:25;;;;;;;5.43;4.93;;;22.60;30.80;;;;;;5011011;28;25525;-59
2021/12/27 00:29:52;;;;;;;5.57;5.07;;;22.60;30.80;;;;;;5011386;28;20045;-58
2021/12/27 00:32:18;;;;;;;5.50;5.00;;;22.50;30.80;;;;;;5012493;28;20132;-59
2021/12/27 00:34:44;;;;;;;5.10;4.60;;;22.50;30.80;;;;;;5012182;28;20041;-59
2021/12/27 00:37:09;;;;;;;4.97;4.57;;;22.40;30.60;;;;;;5012734;28;20404;-59
2021/12/27 00:39:36;;;;;;;4.90;4.40;;;22.40;30.70;;;;;;5014697;28;20045;-59
2021/12/27 00:42:03;;;;;;;4.90;4.50;;;22.50;30.80;;;;;;5010777;28;25350;-59
2021/12/27 00:44:29;;;;;;;5.03;4.55;;;22.40;30.80;;;;;;5014228;28;20033;-58
2021/12/27 00:46:55;;;;;;;5.53;4.40;;;22.40;30.80;;;;;;5012388;28;20408;-59
2021/12/27 00:49:21;;;;;;;4.88;4.47;;;22.40;30.80;;;;;;5013553;28;20030;-58
2021/12/27 00:51:47;;;;;;;5.78;4.90;;;22.30;30.70;;;;;;5013204;28;20042;-59
2021/12/27 00:54:14;;;;;;;5.32;4.57;;;22.30;30.80;;;;;;5012660;28;25254;-59
2021/12/27 00:56:39;;;;;;;5.43;4.93;;;22.30;30.80;;;;;;5010971;28;20058;-58
2021/12/27 00:59:05;;;;;;;5.43;4.50;;;22.30;30.80;;;;;;5015253;28;20123;-59
2021/12/27 01:01:31;;;;;;;4.57;4.18;;;22.30;30.80;;;;;;5012242;28;20083;-58
2021/12/27 01:03:57;;;;;;;4.90;4.40;;;22.20;30.80;;;;;;5014500;28;20052;-59
2021/12/27 01:06:22;;;;;;;5.10;4.68;;;22.20;30.80;;;;;;5011496;28;20132;-58
2021/12/27 01:08:48;;;;;;;4.85;4.43;;;22.20;30.80;;;;;;5011710;28;20072;-58
2021/12/27 01:13:45;;;;;;;5.03;4.07;;;22.10;30.80;;;;;;5015509;28;20046;-59
2021/12/27 01:16:13;;;;;;;4.82;4.40;;;22.20;30.90;;;;;;5012021;28;20061;-59
2021/12/27 01:18:42;;;;;;;5.28;4.78;;;22.10;30.80;;;;;;5012551;28;20160;-58
2021/12/27 01:21:08;;;;;;;4.97;4.47;;;22.10;30.80;;;;;;5012934;28;20060;-58
2021/12/27 01:23:34;;;;;;;5.35;4.60;;;22.10;30.90;;;;;;5011533;28;20760;-59
2021/12/27 01:26:00;;;;;;;5.07;4.45;;;22.10;30.90;;;;;;5026156;28;20034;-59
2021/12/27 01:28:25;;;;;;;4.88;4.47;;;22.10;30.90;;;;;;5013360;28;20095;-59
2021/12/27 01:30:51;;;;;;;5.72;4.95;;;22.10;30.90;;;;;;5012442;28;20128;-58
2021/12/27 01:33:19;;;;;;;5.07;4.43;;;22.00;30.90;;;;;;5013751;28;20037;-58
2021/12/27 01:35:46;;;;;;;4.88;4.40;;;22.00;30.90;;;;;;5012823;28;20058;-59
2021/12/27 01:38:13;;;;;;;5.25;4.60;;;22.00;30.90;;;;;;5013298;28;22064;-60
2021/12/27 01:40:42;;;;;;;6.03;4.65;;;22.00;31.00;;;;;;5011620;28;20038;-59
2021/12/27 01:43:12;;;;;;;5.50;4.85;;;22.00;31.20;;;;;;5014253;28;20125;-60
2021/12/27 01:45:44;;;;;;;5.13;4.45;;;21.90;31.30;;;;;;5013107;28;20430;-60
2021/12/27 01:48:11;;;;;;;4.95;4.45;;;21.90;31.40;;;;;;5014872;28;20837;-60
2021/12/27 01:50:40;;;;;;;5.65;4.60;;;21.90;31.50;;;;;;5010153;28;28354;-59
2021/12/27 01:53:06;;;;;;;4.60;4.20;;;21.90;31.60;;;;;;5013331;28;20042;-60
2021/12/27 01:55:32;;;;;;;5.10;4.60;;;21.90;31.60;;;;;;5018562;28;20040;-60
2021/12/27 01:57:58;;;;;;;6.45;4.32;;;21.90;31.60;;;;;;5014811;28;20037;-61
2021/12/27 02:00:24;;;;;;;4.82;4.15;;;21.80;31.60;;;;;;5018610;28;20469;-60
2021/12/27 02:02:50;;;;;;;5.25;4.60;;;21.80;31.70;;;;;;5016208;28;20034;-60
2021/12/27 02:05:17;;;;;;;5.22;4.28;;;21.80;31.70;;;;;;5015077;28;20033;-60
2021/12/27 02:07:43;;;;;;;5.18;4.00;;;21.80;31.80;;;;;;5017274;28;20401;-60
2021/12/27 02:10:10;;;;;;;4.97;4.50;;;21.80;31.80;;;;;;5016344;28;20037;-59
2021/12/27 02:12:36;;;;;;;5.00;4.30;;;21.70;31.80;;;;;;5015858;28;20051;-60
2021/12/27 02:15:07;;;;;;;4.97;4.57;;;21.70;31.80;;;;;;5028855;28;20057;-59
2021/12/27 02:17:34;;;;;;;5.05;4.47;;;21.70;31.80;;;;;;5016372;28;20123;-60
2021/12/27 02:20:00;;;;;;;5.45;4.28;;;21.70;31.80;;;;;;5048201;28;23573;-60
2021/12/27 02:22:28;;;;;;;4.88;4.25;;;21.70;31.80;;;;;;5015566;28;20373;-60
2021/12/27 02:24:54;;;;;;;4.80;4.40;;;21.70;31.90;;;;;;5017890;28;20049;-60
2021/12/27 02:27:19;;;;;;;4.50;4.10;;;21.60;31.90;;;;;;5015681;28;20772;-60
2021/12/27 02:29:45;;;;;;;5.20;4.70;;;21.60;31.90;;;;;;5017078;28;20125;-60
2021/12/27 02:32:10;;;;;;;6.00;5.18;;;21.60;31.80;;;;;;5015057;28;20042;-60
2021/12/27 02:34:36;;;;;;;5.13;4.47;;;21.60;31.80;;;;;;5016108;28;27532;-59
2021/12/27 02:37:02;;;;;;;4.65;4.20;;;21.60;31.90;;;;;;5014290;28;20566;-60
2021/12/27 02:39:29;;;;;;;5.30;4.80;;;21.60;31.90;;;;;;5015675;28;20041;-59
2021/12/27 02:41:55;;;;;;;5.30;4.80;;;21.60;31.90;;;;;;5013371;28;20524;-60
2021/12/27 02:44:22;;;;;;;5.55;5.05;;;21.60;32.00;;;;;;5015696;28;20052;-60
2021/12/27 02:46:48;;;;;;;4.88;4.40;;;21.60;31.90;;;;;;5010581;28;21686;-60
2021/12/27 02:49:13;;;;;;;5.68;4.63;;;21.50;31.90;;;;;;5015962;28;20022;-60
2021/12/27 02:51:39;;;;;;;4.90;4.40;;;21.50;31.90;;;;;;5016107;28;20041;-59
2021/12/27 02:54:04;;;;;;;6.15;4.55;;;21.50;31.90;;;;;;5016495;28;20493;-60
2021/12/27 02:56:30;;;;;;;4.50;4.10;;;21.50;31.90;;;;;;5014487;28;20045;-60
2021/12/27 02:58:57;;;;;;;4.70;4.30;;;21.50;32.60;;;;;;5016454;28;20037;-60
2021/12/27 03:01:23;;;;;;;5.13;4.63;;;21.50;31.90;;;;;;5008939;28;20261;-60
2021/12/27 03:03:50;;;;;;;5.20;4.78;;;21.50;32.00;;;;;;5013317;28;20141;-60
2021/12/27 03:06:16;;;;;;;4.60;4.20;;;21.40;31.90;;;;;;5015309;28;20045;-60
2021/12/27 03:08:44;;;;;;;5.18;4.68;;;21.50;32.00;;;;;;5014706;28;20501;-60
2021/12/27 03:11:11;;;;;;;5.00;4.50;;;21.40;31.90;;;;;;5017713;28;20045;-60
2021/12/27 03:13:44;;;;;;;5.47;4.97;;;21.40;31.90;;;;;;5013515;28;20132;-59
2021/12/27 03:16:15;;;;;;;4.72;4.30;;;21.40;31.90;;;;;;5015960;28;28408;-60
2021/12/27 03:18:47;;;;;;;4.60;4.20;;;21.40;32.70;;;;;;5015807;28;20056;-60
2021/12/27 03:21:13;;;;;;;4.65;4.25;;;21.40;31.90;;;;;;5014309;28;20046;-59
2021/12/27 03:23:41;;;;;;;5.40;4.75;;;21.40;31.90;;;;;;5014157;28;20461;-60
2021/12/27 03:26:08;;;;;;;4.93;4.22;;;21.30;31.90;;;;;;5017528;28;20057;-60
2021/12/27 03:28:34;;;;;;;5.57;4.45;;;21.30;31.90;;;;;;5012885;28;28217;-59
2021/12/27 03:31:00;;;;;;;5.35;4.50;;;21.30;31.90;;;;;;5015343;28;20481;-60
2021/12/27 03:33:27;;;;;;;4.68;4.28;;;21.30;31.90;;;;;;5014270;28;20144;-59
2021/12/27 03:36:28;;;;;;;4.80;4.40;;;21.30;31.90;;;;;;5016588;28;20079;-60
2021/12/27 03:38:52;;;;;;;5.43;4.57;;;21.30;32.00;;;;;;5015549;28;20454;-61
2021/12/27 03:41:21;;;;;;;4.70;4.15;;;21.30;32.00;;;;;;5014361;28;20049;-59
2021/12/27 03:43:46;;;;;;;5.18;4.68;;;21.20;31.90;;;;;;5012508;28;27714;-59
2021/12/27 03:46:13;;;;;;;5.03;4.53;;;21.20;32.00;;;;;;5014018;28;20559;-60
2021/12/27 03:48:40;;;;;;;4.85;4.38;;;21.20;31.90;;;;;;5014102;28;20034;-60
2021/12/27 03:51:06;;;;;;;4.75;4.25;;;21.20;32.00;;;;;;5017157;28;20861;-59
2021/12/27 03:53:33;;;;;;;4.75;4.35;;;21.20;32.00;;;;;;5013543;28;20125;-60
2021/12/27 03:55:58;;;;;;;4.78;4.38;;;21.20;32.00;;;;;;5014472;28;20061;-59
2021/12/27 03:58:34;;;;;;;4.85;4.45;;;21.20;32.00;;;;;;5013770;28;28875;-60
2021/12/27 04:03:27;;;;;;;5.00;4.50;;;21.20;32.10;;;;;;5013725;28;20064;-60
2021/12/27 04:05:54;;;;;;;4.93;4.53;;;21.20;32.00;;;;;;5014459;28;20712;-59
2021/12/27 04:08:21;;;;;;;4.43;4.00;;;21.10;32.00;;;;;;5017292;28;20062;-60
2021/12/27 04:10:47;;;;;;;4.90;4.50;;;21.10;32.10;;;;;;5011498;28;25143;-60
2021/12/27 04:13:13;;;;;;;5.35;4.50;;;21.10;32.10;;;;;;5017324;28;20044;-60
2021/12/27 04:15:40;;;;;;;4.55;4.15;;;21.10;32.20;;;;;;5012095;28;20057;-60
2021/12/27 04:18:09;;;;;;;5.88;4.60;;;21.10;32.20;;;;;;5014001;28;20581;-60
2021/12/27 04:20:35;;;;;;;4.75;4.35;;;21.10;32.20;;;;;;5018773;28;20041;-60
2021/12/27 04:23:01;;;;;;;5.32;4.72;;;21.10;32.20;;;;;;5014445;28;20040;-60
2021/12/27 04:25:26;;;;;;;4.70;4.30;;;21.10;32.20;;;;;;5012948;28;29474;-60
2021/12/27 04:27:52;;;;;;;4.95;4.55;;;21.00;32.10;;;;;;5014719;28;20040;-60
2021/12/27 04:30:19;;;;;;;5.03;4.53;;;21.00;32.20;;;;;;5015568;28;20486;-61
2021/12/27 04:32:45;;;;;;;4.95;4.53;;;21.00;32.20;;;;;;5011538;28;20117;-60
2021/12/27 04:35:11;;;;;;;4.95;4.55;;;21.00;32.20;;;;;;5014932;28;20139;-60
2021/12/27 04:37:37;;;;;;;5.22;4.70;;;21.00;32.20;;;;;;5015765;28;20511;-59
2021/12/27 04:40:06;;;;;;;5.35;4.68;;;21.00;32.20;;;;;;5013303;28;20046;-60
2021/12/27 04:42:32;;;;;;;4.80;4.40;;;21.00;33.00;;;;;;5011418;28;20038;-59
2021/12/27 04:44:59;;;;;;;4.80;4.38;;;21.00;32.30;;;;;;5015750;28;20092;-59
2021/12/27 04:47:24;;;;;;;4.97;4.50;;;21.00;32.30;;;;;;5012058;28;20137;-60
2021/12/27 04:49:50;;;;;;;4.85;4.45;;;20.90;32.30;;;;;;5016222;28;20037;-59
2021/12/27 04:52:16;;;;;;;5.30;4.80;;;20.90;32.30;;;;;;5013697;28;20045;-60
2021/12/27 04:54:41;;;;;;;5.13;4.63;;;20.90;32.30;;;;;;5012728;28;28904;-59
2021/12/27 04:57:08;;;;;;;4.85;4.45;;;20.90;32.30;;;;;;5013215;28;20464;-60
2021/12/27 04:59:34;;;;;;;4.70;4.30;;;20.90;32.30;;;;;;5013725;28;20397;-60
2021/12/27 05:01:59;;;;;;;4.78;4.38;;;20.90;32.30;;;;;;5008532;28;20030;-60
2021/12/27 05:04:25;;;;;;;5.18;4.53;;;20.90;32.40;;;;;;5012386;28;20120;-59
2021/12/27 05:06:51;;;;;;;5.20;4.70;;;20.90;32.40;;;;;;5013811;28;20046;-60
2021/12/27 05:09:16;;;;;;;5.30;4.80;;;20.80;32.30;;;;;;5011833;28;27084;-60
2021/12/27 05:11:42;;;;;;;4.53;4.13;;;20.90;32.40;;;;;;5013712;28;20556;-60
2021/12/27 05:14:08;;;;;;;5.30;4.80;;;20.80;32.30;;;;;;5012224;28;20726;-59
2021/12/27 05:16:33;;;;;;;4.93;4.43;;;20.80;32.40;;;;;;5014360;28;20484;-60
2021/12/27 05:18:59;;;;;;;5.10;4.60;;;20.80;32.40;;;;;;5012422;28;20033;-60
2021/12/27 05:21:25;;;;;;;4.72;4.32;;;20.80;32.50;;;;;;5008733;28;29129;-61
2021/12/27 05:23:51;;;;;;;5.28;4.70;;;20.80;32.40;;;;;;5013145;28;20080;-60
2021/12/27 05:26:17;;;;;;;5.47;4.88;;;20.80;32.40;;;;;;5012675;28;20071;-60
2021/12/27 05:28:43;;;;;;;5.15;4.65;;;20.80;32.40;;;;;;5015538;28;20600;-60
2021/12/27 05:31:08;;;;;;;4.80;4.40;;;20.80;32.50;;;;;;5016793;28;20033;-59
2021/12/27 05:33:34;;;;;;;4.72;4.32;;;20.80;32.50;;;;;;5017041;28;20139;-60
2021/12/27 05:36:00;;;;;;;5.32;4.82;;;20.70;32.40;;;;;;5015206;28;20064;-59
2021/12/27 05:38:25;;;;;;;5.40;4.90;;;20.70;32.50;;;;;;5016188;28;20045;-59
2021/12/27 05:40:53;;;;;;;4.93;4.53;;;20.80;32.60;;;;;;5017873;28;20054;-60
2021/12/27 05:43:20;;;;;;;4.82;4.38;;;20.70;32.50;;;;;;5017287;28;20041;-60
2021/12/27 05:45:45;;;;;;;5.07;4.57;;;20.70;32.60;;;;;;5018419;28;20057;-60
2021/12/27 05:48:11;;;;;;;5.00;4.60;;;20.70;32.50;;;;;;5017857;28;20029;-59
2021/12/27 05:50:37;;;;;;;5.07;4.68;;;20.70;32.50;;;;;;5030846;28;20045;-60
2021/12/27 05:53:03;;;;;;;5.38;4.35;;;20.70;32.60;;;;;;5019651;28;20448;-60
2021/12/27 05:55:29;;;;;;;5.03;4.53;;;20.70;32.60;;;;;;5016049;28;20076;-60
2021/12/27 05:57:55;;;;;;;5.82;5.10;;;20.60;32.60;;;;;;5018314;28;20045;-60
2021/12/27 06:00:21;;;;;;;5.72;5.13;;;20.60;32.60;;;;;;5017912;28;20052;-59
2021/12/27 06:02:47;;;;;;;5.05;4.55;;;20.60;32.60;;;;;;5016688;28;20596;-60
2021/12/27 06:05:13;;;;;;;5.53;4.57;;;20.60;32.70;;;;;;5018757;28;24632;-60
2021/12/27 06:07:39;;;;;;;9.32;4.95;;;20.60;32.60;;;;;;5014391;28;20065;-60
2021/12/27 06:10:06;;;;;;;6.35;5.00;;;20.60;32.60;;;;;;5018006;28;20037;-60
2021/12/27 06:12:32;;;;;;;5.05;4.20;;;20.60;32.70;;;;;;5016725;28;20049;-60
2021/12/27 06:14:58;;;;;;;5.60;4.93;;;20.60;32.60;;;;;;5016490;28;20062;-59
2021/12/27 06:17:24;;;;;;;5.10;4.60;;;20.60;32.60;;;;;;5013018;28;21165;-60
2021/12/27 06:19:49;;;;;;;5.35;4.60;;;20.60;32.70;;;;;;5015283;28;20115;-60
2021/12/27 06:22:15;;;;;;;5.20;4.57;;;20.60;32.70;;;;;;5019214;28;20038;-60
2021/12/27 06:24:41;;;;;;;5.50;4.97;;;20.60;32.60;;;;;;5016200;28;20481;-59
2021/12/27 06:27:06;;;;;;;4.93;4.43;;;20.60;32.70;;;;;;5018912;28;20033;-60
2021/12/27 06:29:32;;;;;;;5.25;4.32;;;20.60;32.70;;;;;;5017056;28;20037;-60
2021/12/27 06:31:57;;;;;;;5.85;4.85;;;20.60;32.70;;;;;;5016812;28;25193;-60
2021/12/27 06:34:23;;;;;;;5.68;4.63;;;20.60;32.80;;;;;;5046848;28;20040;-60
2021/12/27 06:36:49;;;;;;;9.93;4.60;;;20.60;32.80;;;;;;5015609;28;21120;-59
2021/12/27 06:39:14;;;;;;;5.30;4.60;;;20.60;32.90;;;;;;5011249;28;20362;-60
2021/12/27 06:41:40;;;;;;;7.53;4.72;;;20.60;33.00;;;;;;5012957;28;20041;-60
2021/12/27 06:44:06;;;;;;;5.30;4.63;;;20.70;33.10;;;;;;5013352;28;20037;-60
2021/12/27 06:46:31;;;;;;;8.25;4.72;;;20.70;33.20;;;;;;5013150;28;20048;-59
2021/12/27 06:48:57;;;;;;;5.32;4.45;;;20.70;33.30;;;;;;5015340;28;20552;-60
2021/12/27 06:51:23;;;;;;;4.72;4.30;;;20.70;33.40;;;;;;5017499;28;20049;-59
2021/12/27 06:53:48;;;;;;;5.07;4.57;;;20.70;34.20;;;;;;5017251;28;20041;-59
2021/12/27 06:56:15;;;;;;;4.35;3.90;;;20.70;33.40;;;;;;5013030;28;20674;-59
2021/12/27 06:58:40;;;;;;;4.88;4.38;;;20.70;33.50;;;;;;5016788;28;20053;-59
2021/12/27 07:01:06;;;;;;;8.13;4.90;;;20.70;33.50;;;;;;5014676;28;27008;-58
2021/12/27 07:03:32;;;;;;;9.00;5.18;;;20.70;33.60;;;;;;5016004;28;20033;-59
2021/12/27 07:05:57;;;;;;;7.10;4.65;;;20.70;33.60;;;;;;5014727;28;20484;-60
2021/12/27 07:08:23;;;;;;;4.88;4.18;;;20.70;33.70;;;;;;5017355;28;20912;-60
2021/12/27 07:10:49;;;;;;;4.78;4.30;;;20.80;33.70;;;;;;5014760;28;20056;-60
2021/12/27 07:13:15;;;;;;;5.53;4.63;;;20.80;33.70;;;;;;5015671;28;20033;-60
2021/12/27 07:15:41;;;;;;;7.22;4.40;;;20.80;33.80;;;;;;5015017;28;23092;-60
2021/12/27 07:18:09;;;;;;;4.88;4.15;;;20.80;33.80;;;;;;5014171;28;20481;-59
2021/12/27 07:20:35;;;;;;;4.32;3.92;;;20.80;33.90;;;;;;5016075;28;20046;-62
2021/12/27 07:23:01;;;;;;;5.55;3.92;;;20.80;33.90;;;;;;5029627;28;20096;-60
2021/12/27 07:25:26;;;;;;;4.95;4.35;;;20.80;33.90;;;;;;5017593;28;20034;-60
2021/12/27 07:27:52;;;;;;;5.25;4.32;;;20.80;33.80;;;;;;4991780;28;20115;-60
2021/12/27 07:30:18;;;;;;;5.60;4.65;;;20.90;33.90;;;;;;5045877;28;20057;-59
2021/12/27 07:32:43;;;;;;;6.15;4.10;;;20.90;33.90;;;;;;5014477;28;20044;-60
2021/12/27 07:35:09;;;;;;;5.30;4.40;;;20.90;33.90;;;;;;5012710;28;20052;-60
2021/12/27 07:37:35;;;;;;;4.93;4.38;;;20.90;33.90;;;;;;5016086;28;20138;-60
2021/12/27 07:40:02;;;;;;;4.32;3.92;;;20.90;33.90;;;;;;5014143;28;20442;-60
2021/12/27 07:42:27;;;;;;;5.72;4.20;;;20.90;33.80;;;;;;5029683;28;20278;-59
2021/12/27 07:44:53;;;;;;;6.55;4.38;;;20.90;33.80;;;;;;5015623;28;20041;-60
2021/12/27 07:47:18;;;;;;;5.22;4.63;;;20.90;33.80;;;;;;5014181;28;20037;-60
2021/12/27 07:49:44;;;;;;;5.05;4.25;;;20.90;33.80;;;;;;5016155;28;20076;-60
2021/12/27 07:52:09;;;;;;;4.78;4.10;;;20.90;33.80;;;;;;5017206;28;20083;-60
2021/12/27 07:54:35;;;;;;;4.70;4.30;;;20.90;33.70;;;;;;5016768;28;20099;-60
2021/12/27 07:57:01;;;;;;;6.15;4.18;;;20.90;33.80;;;;;;5015775;28;20073;-60
2021/12/27 07:59:27;;;;;;;5.47;4.63;;;20.90;33.70;;;;;;5015771;28;20029;-60
2021/12/27 08:01:53;;;;;;;5.28;4.43;;;20.90;33.70;;;;;;5014615;28;20087;-60
2021/12/27 08:04:18;;;;;;;7.07;4.53;;;20.90;33.70;;;;;;5014624;28;20046;-59
2021/12/27 08:06:44;;;;;;;6.05;4.40;;;20.90;33.70;;;;;;5014627;28;20045;-60
2021/12/27 08:09:10;;;;;;;4.85;3.90;;;20.90;33.70;;;;;;5016208;28;20049;-60
2021/12/27 08:11:36;;;;;;;4.78;4.22;;;20.90;33.70;;;;;;5013089;28;22561;-60
2021/12/27 08:14:03;;;;;;;4.57;4.10;;;20.90;33.60;;;;;;5016371;28;20116;-60
2021/12/27 08:16:29;;;;;;;7.10;4.60;;;21.00;33.70;;;;;;5014124;28;20053;-59
2021/12/27 08:18:55;;;;;;;6.65;4.78;;;21.00;33.80;;;;;;5046947;28;20489;-59
2021/12/27 08:21:23;;;;;;;6.20;4.45;;;20.90;33.70;;;;;;5011580;28;20175;-60
2021/12/27 08:23:49;;;;;;;5.03;4.20;;;21.00;33.70;;;;;;5011290;28;20041;-57
2021/12/27 08:26:16;;;;;;;5.88;4.43;;;21.00;33.70;;;;;;5004501;28;22843;-61
2021/12/27 08:28:43;;;;;;;5.82;4.40;;;21.00;33.70;;;;;;5011820;28;20099;-60
2021/12/27 08:31:09;;;;;;;5.72;4.25;;;21.00;33.90;;;;;;5015054;28;20077;-60
2021/12/27 08:33:35;;;;;;;6.75;4.40;;;21.00;33.90;;;;;;5013019;28;20129;-57
2021/12/27 08:36:01;;;;;;;8.23;5.03;;;21.00;34.00;;;;;;5015968;28;20095;-59
2021/12/27 08:38:26;;;;;;;7.38;5.05;;;21.00;34.10;;;;;;5012611;28;24453;-61
2021/12/27 08:40:52;;;;;;;8.65;4.80;;;21.00;34.20;;;;;;5014298;28;20580;-59
2021/12/27 08:43:17;;;;;;;7.00;5.07;;;21.00;34.20;;;;;;5012144;28;20137;-61
2021/12/27 08:45:44;;;;;;;7.30;5.03;;;21.00;34.20;;;;;;5011895;28;20029;-58
2021/12/27 08:48:10;;;;;;;6.93;5.00;;;21.00;34.30;;;;;;4994716;28;20045;-61
2021/12/27 08:50:37;;;;;;;6.20;4.70;;;21.00;34.40;;;;;;5012093;28;20401;-60
2021/12/27 08:53:07;;;;;;;8.27;5.50;;;21.00;34.50;;;;;;5007370;28;26747;-60
2021/12/27 08:55:37;;;;;;;8.52;5.00;;;21.00;34.50;;;;;;5011322;28;20135;-60
2021/12/27 08:58:05;;;;;;;6.40;4.97;;;21.00;35.40;;;;;;5010991;28;20128;-61
2021/12/27 09:00:32;;;;;;;7.53;4.90;;;21.00;34.60;;;;;;4994961;28;20042;-60
2021/12/27 09:02:58;;;;;;;8.00;5.28;;;21.00;34.70;;;;;;5025748;28;20678;-60
2021/12/27 09:05:24;;;;;;;6.80;4.90;;;21.00;34.80;;;;;;5011315;28;20033;-60
2021/12/27 09:07:50;;;;;;;7.43;4.68;;;21.00;34.90;;;;;;5008871;28;20053;-61
2021/12/27 09:10:17;;;;;;;6.97;4.10;;;21.00;35.00;;;;;;5010355;28;20045;-61
2021/12/27 09:12:46;;;;;;;8.20;5.22;;;21.00;35.10;;;;;;5008496;28;20519;-60
2021/12/27 09:15:14;;;;;;;7.95;5.30;;;21.00;35.20;;;;;;4995275;28;20054;-61
2021/12/27 09:17:49;;;;;;;7.75;4.78;;;21.10;35.30;;;;;;5009474;28;20270;-61
2021/12/27 09:20:16;;;;;;;6.47;4.80;;;21.10;35.30;;;;;;5011444;28;20747;-60
2021/12/27 09:22:42;;;;;;;7.68;5.10;;;21.10;35.40;;;;;;4995152;28;20060;-62
2021/12/27 09:25:08;;;;;;;9.32;5.10;;;21.10;35.40;;;;;;5026530;28;20036;-60
2021/12/27 09:27:34;;;;;;;9.60;5.43;;;21.10;35.50;;;;;;5028382;28;20038;-60
2021/12/27 09:30:00;;;;;;;8.50;4.60;;;21.10;35.50;;;;;;5013790;28;20038;-60
2021/12/27 09:32:26;;;;;;;7.57;5.00;;;21.10;35.60;;;;;;5012760;28;20046;-59
2021/12/27 09:34:51;;;;;;;8.00;5.25;;;21.10;35.70;;;;;;5011251;28;20049;-61
2021/12/27 09:37:17;;;;;;;8.00;5.13;;;21.10;35.60;;;;;;5014691;28;20038;-58
2021/12/27 09:39:42;;;;;;;8.80;5.32;;;21.10;35.60;;;;;;5013204;28;20486;-60
2021/12/27 09:42:08;;;;;;;7.93;5.30;;;21.20;35.60;;;;;;5014113;28;20743;-60
2021/12/27 09:44:34;;;;;;;8.57;5.10;;;21.10;35.50;;;;;;5014079;28;20096;-60
2021/12/27 09:47:00;;;;;;;8.55;5.18;;;21.20;35.70;;;;;;5013988;28;20143;-60
2021/12/27 09:49:29;;;;;;;7.40;5.03;;;21.20;35.70;;;;;;5011641;28;28391;-61
2021/12/27 09:51:58;;;;;;;6.93;4.55;;;21.20;36.00;;;;;;5011944;28;20025;-60
2021/12/27 09:54:26;;;;;;;8.70;5.15;;;21.20;36.10;;;;;;5014771;28;20164;-60
2021/12/27 09:56:52;;;;;;;9.63;5.30;;;21.10;36.30;;;;;;5011534;28;20042;-61
2021/12/27 09:59:17;;;;;;;8.40;5.55;;;21.20;36.30;;;;;;5015874;28;20042;-61
2021/12/27 10:01:43;;;;;;;8.70;4.63;;;21.20;36.40;;;;;;5010739;28;20084;-61
2021/12/27 10:04:09;;;;;;;6.90;5.18;;;21.20;36.60;;;;;;5013638;28;20048;-60
2021/12/27 10:06:34;;;;;;;8.50;5.13;;;21.20;36.60;;;;;;5010951;28;20025;-61
2021/12/27 10:09:04;;;;;;;8.45;4.90;;;21.30;36.90;;;;;;5015872;28;20049;-60
2021/12/27 10:11:33;;;;;;;8.17;5.23;;;21.20;36.90;;;;;;5013540;28;20068;-60
2021/12/27 10:14:09;;;;;;;9.43;4.78;;;21.30;36.90;;;;;;5012516;28;20042;-61
2021/12/27 10:16:49;;;;;;;7.45;5.18;;;21.30;37.00;;;;;;5017778;28;29173;-60
2021/12/27 10:19:17;;;;;;;9.83;4.60;;;21.30;37.00;;;;;;5016079;28;20041;-61
2021/12/27 10:21:44;;;;;;;8.68;4.88;;;21.30;37.20;;;;;;5018003;28;20064;-61
2021/12/27 10:24:14;;;;;;;8.63;4.93;;;21.30;37.20;;;;;;5018511;28;20133;-60
2021/12/27 10:26:40;;;;;;;9.43;4.88;;;21.30;37.20;;;;;;5016893;28;20069;-60
2021/12/27 10:29:23;;;;;;;8.40;5.18;;;21.30;38.10;;;;;;5017629;28;20064;-61
2021/12/27 10:32:04;;;;;;;7.35;4.70;;;21.30;37.40;;;;;;5011716;28;20762;-61
2021/12/27 10:34:35;;;;;;;;;;;21.40;37.40;;;;;;5017646;28;20034;-61
2021/12/27 10:37:09;;;;;;;6.53;4.25;;;21.40;37.50;;;;;;5014998;28;19992;-60
2021/12/27 10:39:43;;;;;;;7.35;4.57;;;21.30;37.20;;;;;;5015734;28;20112;-60
2021/12/27 10:42:09;;;;;;;7.07;4.90;;;21.40;37.30;;;;;;5013635;28;21658;-60
2021/12/27 10:44:38;;;;;;;9.90;5.03;;;21.40;37.40;;;;;;5010364;28;27226;-60
2021/12/27 10:47:21;;;;;;;6.90;4.63;;;21.40;37.40;;;;;;5017068;28;20471;-60
2021/12/27 10:49:48;;;;;;;8.52;4.90;;;21.40;37.50;;;;;;5015964;28;20510;-61
2021/12/27 10:52:13;;;;;;;8.45;5.18;;;21.40;37.60;;;;;;5014335;28;20045;-61
2021/12/27 10:54:39;;;;;;;8.40;5.55;;;21.40;37.70;;;;;;5017468;28;20523;-60
2021/12/27 10:57:05;;;;;;;7.97;4.97;;;21.40;37.70;;;;;;5010747;28;20084;-60
2021/12/27 10:59:31;;;;;;;8.38;5.30;;;21.40;37.70;;;;;;5015028;28;20121;-60
2021/12/27 11:02:10;;;;;;;8.07;5.38;;;21.50;37.80;;;;;;5012381;28;20456;-59
2021/12/27 11:04:37;;;;;;;8.48;5.60;;;21.50;38.80;;;;;;5013814;28;20039;-60
2021/12/27 11:07:04;;;;;;;11.75;6.07;;;21.50;38.00;;;;;;5013018;28;20539;-60
2021/12/27 11:09:32;;;;;;;15.55;8.05;;;21.50;38.10;;;;;;5012634;28;20044;-60
2021/12/27 11:11:58;;;;;;;14.57;8.00;;;21.50;38.30;;;;;;5014152;28;20592;-60
2021/12/27 11:14:24;;;;;;;16.40;8.10;;;21.50;38.50;;;;;;5010477;28;26956;-60
2021/12/27 11:16:50;;;;;;;12.35;7.88;;;21.50;38.70;;;;;;5016751;28;20085;-60
2021/12/27 11:19:16;;;;;;;16.05;8.27;;;21.50;38.70;;;;;;5014406;28;20041;-60
2021/12/27 11:21:42;;;;;;;13.63;8.13;;;21.50;38.80;;;;;;5012722;28;20081;-58
2021/12/27 11:24:08;;;;;;;17.73;8.20;;;21.50;38.90;;;;;;5014676;28;20038;-60
2021/12/27 11:26:36;;;;;;;13.38;8.50;;;21.50;39.00;;;;;;5014921;28;20041;-61
2021/12/27 11:29:16;;;;;;;15.55;7.95;;;21.50;39.10;;;;;;5015761;28;29017;-61
2021/12/27 11:31:45;;;;;;;15.98;8.43;;;21.60;39.30;;;;;;5014398;28;20049;-61
2021/12/27 11:34:13;;;;;;;12.88;7.32;;;21.60;39.20;;;;;;5014159;28;20041;-60
2021/12/27 11:36:42;;;;;;;15.43;7.88;;;21.60;39.20;;;;;;5012662;28;20171;-61
2021/12/27 11:39:36;;;;;;;11.60;7.30;;;21.60;39.20;;;;;;5013354;28;20048;-61
2021/12/27 11:42:04;;;;;;;12.75;7.38;;;21.60;39.20;;;;;;5012971;28;31525;-60
2021/12/27 11:44:49;;;;;;;16.88;7.40;;;21.60;39.20;;;;;;5015159;28;20038;-60
2021/12/27 11:47:29;;;;;;;11.60;7.13;;;21.60;39.30;;;;;;5011930;28;20083;-61
2021/12/27 11:50:01;;;;;;;12.10;6.65;;;21.60;39.10;;;;;;5013664;28;20107;-61
2021/12/27 11:52:29;;;;;;;10.45;6.43;;;21.60;39.20;;;;;;5013585;28;20045;-60
2021/12/27 11:55:07;;;;;;;17.58;7.20;;;21.60;39.00;;;;;;5011737;28;31697;-60
2021/12/27 11:57:54;;;;;;;12.20;7.07;;;21.60;39.10;;;;;;5016403;28;20065;-59
2021/12/27 12:00:32;;;;;;;12.07;7.13;;;21.60;39.00;;;;;;5012688;28;20046;-61
2021/12/27 12:03:03;;;;;;;12.18;7.05;;;21.60;39.10;;;;;;5015620;28;20042;-60
2021/12/27 12:05:50;;;;;;;12.38;6.50;;;21.60;39.00;;;;;;5016292;28;20366;-60
2021/12/27 12:08:40;;;;;;;11.80;6.50;;;21.70;39.00;;;;;;5016401;28;20052;-60
2021/12/27 12:11:10;;;;;;;14.47;6.77;;;21.60;38.90;;;;;;5010726;28;33362;-60
2021/12/27 12:13:47;;;;;;;12.40;7.13;;;21.60;39.00;;;;;;5045608;28;20049;-60
2021/12/27 12:16:22;;;;;;;13.63;7.15;;;21.70;39.00;;;;;;5015136;28;20506;-60
2021/12/27 12:18:51;;;;;;;15.00;7.50;;;21.70;39.10;;;;;;5017770;28;20142;-60
2021/12/27 12:21:43;;;;;;;10.55;6.95;;;21.70;39.10;;;;;;5013082;28;20091;-61
2021/12/27 12:24:11;;;;;;;12.32;6.88;;;21.70;39.10;;;;;;5014318;28;30732;-61
2021/12/27 12:26:52;;;;;;;13.23;6.85;;;21.70;39.10;;;;;;5014687;28;20028;-61
2021/12/27 12:29:17;;;;;;;11.18;6.93;;;21.70;39.10;;;;;;5013903;28;20116;-61
2021/12/27 12:31:44;;;;;;;13.65;7.22;;;21.70;39.20;;;;;;5013421;28;20436;-61
2021/12/27 12:34:11;;;;;;;9.38;6.70;;;21.70;39.20;;;;;;5010792;28;20090;-61
2021/12/27 12:36:50;;;;;;;12.23;6.97;;;21.70;39.20;;;;;;5012464;28;20124;-60
2021/12/27 12:39:16;;;;;;;12.93;6.63;;;21.70;39.20;;;;;;5009792;28;24308;-61
2021/12/27 12:41:42;;;;;;;11.40;6.93;;;21.70;39.20;;;;;;5014104;28;20827;-60
2021/12/27 12:44:07;;;;;;;11.10;6.28;;;21.70;39.20;;;;;;5013356;28;20124;-61
2021/12/27 12:46:52;;;;;;;12.93;6.80;;;21.80;39.30;;;;;;5011379;28;20135;-60
2021/12/27 12:49:22;;;;;;;12.98;7.00;;;21.70;39.10;;;;;;5013946;28;21011;-60
2021/12/27 12:51:53;;;;;;;12.23;6.55;;;21.80;39.20;;;;;;5012054;28;32155;-61